sensor_id;sensor_type;location;lat;lon;timestamp;pressure;altitude;pressure_sealevel;temperature;humidity
70248;BME280;57641;51.416;5.506;2023-05-01T00:00:08;101816.38;;;19.16;40.57
70248;BME280;57641;51.416;5.506;2023-05-01T00:02:35;101811.06;;;19.08;41.16
70248;BME280;57641;51.416;5.506;2023-05-01T00:05:04;101812.34;;;18.97;41.46
70248;BME280;57641;51.416;5.506;2023-05-01T00:07:29;101804.81;;;18.92;41.26
70248;BME280;57641;51.416;5.506;2023-05-01T00:09:58;101803.41;;;18.82;42.44
70248;BME280;57641;51.416;5.506;2023-05-01T00:12:25;101798.72;;;18.76;41.67
70248;BME280;57641;51.416;5.506;2023-05-01T00:14:52;101797.03;;;18.75;42.61
70248;BME280;57641;51.416;5.506;2023-05-01T00:17:18;101796.19;;;18.74;42.61
70248;BME280;57641;51.416;5.506;2023-05-01T00:19:44;101784.44;;;18.67;42.49
70248;BME280;57641;51.416;5.506;2023-05-01T00:22:09;101790.88;;;18.66;42.65
70248;BME280;57641;51.416;5.506;2023-05-01T00:24:35;101781.09;;;18.65;43.16
70248;BME280;57641;51.416;5.506;2023-05-01T00:27:01;101780.13;;;18.58;43.28
70248;BME280;57641;51.416;5.506;2023-05-01T00:29:27;101781.16;;;18.57;43.21
70248;BME280;57641;51.416;5.506;2023-05-01T00:31:54;101778.66;;;18.55;43.40
70248;BME280;57641;51.416;5.506;2023-05-01T00:34:20;101778.75;;;18.62;43.33
70248;BME280;57641;51.416;5.506;2023-05-01T00:36:45;101773.84;;;18.66;42.87
70248;BME280;57641;51.416;5.506;2023-05-01T00:39:11;101777.25;;;18.60;42.66
70248;BME280;57641;51.416;5.506;2023-05-01T00:41:36;101767.00;;;18.55;43.33
70248;BME280;57641;51.416;5.506;2023-05-01T00:44:02;101773.75;;;18.51;42.97
70248;BME280;57641;51.416;5.506;2023-05-01T00:46:28;101770.22;;;18.50;43.29
70248;BME280;57641;51.416;5.506;2023-05-01T00:48:56;101758.06;;;18.54;42.89
70248;BME280;57641;51.416;5.506;2023-05-01T00:51:22;101756.72;;;18.50;43.18
70248;BME280;57641;51.416;5.506;2023-05-01T00:53:47;101751.66;;;18.47;43.84
70248;BME280;57641;51.416;5.506;2023-05-01T00:56:14;101759.09;;;18.45;43.76
70248;BME280;57641;51.416;5.506;2023-05-01T00:58:41;101748.63;;;18.50;44.02
70248;BME280;57641;51.416;5.506;2023-05-01T01:01:06;101753.41;;;18.40;44.52
70248;BME280;57641;51.416;5.506;2023-05-01T01:03:35;101745.84;;;18.21;44.88
70248;BME280;57641;51.416;5.506;2023-05-01T01:06:27;101734.78;;;18.31;44.51
70248;BME280;57641;51.416;5.506;2023-05-01T01:09:22;101735.50;;;18.25;44.29
70248;BME280;57641;51.416;5.506;2023-05-01T01:12:12;101732.59;;;18.11;44.34
70248;BME280;57641;51.416;5.506;2023-05-01T01:15:06;101730.22;;;18.08;44.94
70248;BME280;57641;51.416;5.506;2023-05-01T01:17:42;101726.19;;;18.12;44.19
70248;BME280;57641;51.416;5.506;2023-05-01T01:31:19;101709.16;;;17.89;45.68
70248;BME280;57641;51.416;5.506;2023-05-01T01:36:33;101704.75;;;17.88;45.20
70248;BME280;57641;51.416;5.506;2023-05-01T01:39:11;101692.25;;;17.95;45.57
70248;BME280;57641;51.416;5.506;2023-05-01T01:41:38;101693.06;;;17.96;45.49
70248;BME280;57641;51.416;5.506;2023-05-01T01:44:21;101688.22;;;17.91;45.57
70248;BME280;57641;51.416;5.506;2023-05-01T01:46:48;101688.41;;;17.90;45.44
70248;BME280;57641;51.416;5.506;2023-05-01T01:49:19;101683.00;;;17.90;45.12
70248;BME280;57641;51.416;5.506;2023-05-01T01:51:46;101676.22;;;17.94;45.64
70248;BME280;57641;51.416;5.506;2023-05-01T01:54:14;101676.91;;;17.96;46.01
70248;BME280;57641;51.416;5.506;2023-05-01T01:56:43;101679.22;;;17.99;45.36
70248;BME280;57641;51.416;5.506;2023-05-01T01:59:11;101679.59;;;17.96;45.84
70248;BME280;57641;51.416;5.506;2023-05-01T02:01:39;101673.94;;;17.83;47.00
70248;BME280;57641;51.416;5.506;2023-05-01T02:04:07;101667.25;;;17.79;47.08
70248;BME280;57641;51.416;5.506;2023-05-01T02:06:35;101672.63;;;17.79;46.24
70248;BME280;57641;51.416;5.506;2023-05-01T02:09:02;101666.22;;;17.80;45.95
70248;BME280;57641;51.416;5.506;2023-05-01T02:11:31;101665.50;;;17.86;46.46
70248;BME280;57641;51.416;5.506;2023-05-01T02:13:58;101658.34;;;17.93;44.65
70248;BME280;57641;51.416;5.506;2023-05-01T02:16:26;101650.63;;;17.90;44.28
70248;BME280;57641;51.416;5.506;2023-05-01T02:18:53;101654.91;;;17.84;44.72
70248;BME280;57641;51.416;5.506;2023-05-01T02:21:20;101661.25;;;17.68;45.21
70248;BME280;57641;51.416;5.506;2023-05-01T02:23:47;101658.97;;;17.80;45.85
70248;BME280;57641;51.416;5.506;2023-05-01T02:26:15;101642.63;;;17.82;45.54
70248;BME280;57641;51.416;5.506;2023-05-01T02:28:43;101644.28;;;17.83;44.89
70248;BME280;57641;51.416;5.506;2023-05-01T02:31:10;101634.88;;;17.79;45.17
70248;BME280;57641;51.416;5.506;2023-05-01T02:33:35;101640.81;;;17.74;45.54
70248;BME280;57641;51.416;5.506;2023-05-01T02:36:01;101641.66;;;17.75;45.52
70248;BME280;57641;51.416;5.506;2023-05-01T02:38:27;101636.81;;;17.70;45.53
70248;BME280;57641;51.416;5.506;2023-05-01T02:40:56;101634.66;;;17.65;46.90
70248;BME280;57641;51.416;5.506;2023-05-01T02:43:24;101625.72;;;17.65;46.49
70248;BME280;57641;51.416;5.506;2023-05-01T02:45:52;101627.38;;;17.66;46.16
70248;BME280;57641;51.416;5.506;2023-05-01T02:48:22;101626.75;;;17.64;46.50
70248;BME280;57641;51.416;5.506;2023-05-01T02:50:48;101627.19;;;17.67;46.00
70248;BME280;57641;51.416;5.506;2023-05-01T02:53:15;101617.94;;;17.70;46.78
70248;BME280;57641;51.416;5.506;2023-05-01T02:55:41;101612.72;;;17.68;47.53
70248;BME280;57641;51.416;5.506;2023-05-01T02:58:16;101614.94;;;17.57;46.93
70248;BME280;57641;51.416;5.506;2023-05-01T03:00:43;101613.09;;;17.57;47.00
70248;BME280;57641;51.416;5.506;2023-05-01T03:03:09;101617.66;;;17.57;47.31
70248;BME280;57641;51.416;5.506;2023-05-01T03:05:37;101613.47;;;17.54;47.43
70248;BME280;57641;51.416;5.506;2023-05-01T03:08:03;101611.63;;;17.55;47.18
70248;BME280;57641;51.416;5.506;2023-05-01T03:10:28;101608.06;;;17.54;47.40
70248;BME280;57641;51.416;5.506;2023-05-01T03:12:54;101597.28;;;17.54;47.57
70248;BME280;57641;51.416;5.506;2023-05-01T03:15:19;101602.19;;;17.51;48.01
70248;BME280;57641;51.416;5.506;2023-05-01T03:17:45;101600.03;;;17.46;47.88
70248;BME280;57641;51.416;5.506;2023-05-01T03:20:11;101590.47;;;17.44;47.88
70248;BME280;57641;51.416;5.506;2023-05-01T03:22:36;101588.47;;;17.38;47.86
70248;BME280;57641;51.416;5.506;2023-05-01T03:25:02;101588.59;;;17.44;47.58
70248;BME280;57641;51.416;5.506;2023-05-01T03:27:29;101584.78;;;17.39;47.99
70248;BME280;57641;51.416;5.506;2023-05-01T03:29:55;101587.28;;;17.40;47.48
70248;BME280;57641;51.416;5.506;2023-05-01T03:32:21;101580.22;;;17.39;47.87
70248;BME280;57641;51.416;5.506;2023-05-01T03:34:47;101570.47;;;17.38;47.58
70248;BME280;57641;51.416;5.506;2023-05-01T03:37:12;101565.69;;;17.40;47.30
70248;BME280;57641;51.416;5.506;2023-05-01T03:39:39;101561.53;;;17.38;47.30
70248;BME280;57641;51.416;5.506;2023-05-01T03:42:05;101559.00;;;17.36;47.49
70248;BME280;57641;51.416;5.506;2023-05-01T03:44:30;101570.94;;;17.42;47.13
70248;BME280;57641;51.416;5.506;2023-05-01T03:46:57;101570.16;;;17.33;47.37
70248;BME280;57641;51.416;5.506;2023-05-01T03:49:22;101563.00;;;17.40;46.81
70248;BME280;57641;51.416;5.506;2023-05-01T03:51:48;101559.97;;;17.43;46.82
70248;BME280;57641;51.416;5.506;2023-05-01T03:54:14;101563.00;;;17.40;47.36
70248;BME280;57641;51.416;5.506;2023-05-01T03:56:39;101555.41;;;17.44;47.11
70248;BME280;57641;51.416;5.506;2023-05-01T03:59:05;101550.75;;;17.38;47.22
70248;BME280;57641;51.416;5.506;2023-05-01T04:01:31;101551.09;;;17.35;47.35
70248;BME280;57641;51.416;5.506;2023-05-01T04:03:58;101551.59;;;17.38;47.23
70248;BME280;57641;51.416;5.506;2023-05-01T04:06:24;101554.63;;;17.35;47.07
70248;BME280;57641;51.416;5.506;2023-05-01T04:08:50;101549.78;;;17.30;47.43
70248;BME280;57641;51.416;5.506;2023-05-01T04:11:16;101555.34;;;17.29;47.29
70248;BME280;57641;51.416;5.506;2023-05-01T04:13:41;101544.25;;;17.24;47.85
70248;BME280;57641;51.416;5.506;2023-05-01T04:16:06;101545.94;;;17.25;48.00
70248;BME280;57641;51.416;5.506;2023-05-01T04:18:32;101552.19;;;17.25;48.41
70248;BME280;57641;51.416;5.506;2023-05-01T04:20:57;101544.63;;;17.21;48.23
70248;BME280;57641;51.416;5.506;2023-05-01T04:23:23;101542.09;;;17.19;48.55
70248;BME280;57641;51.416;5.506;2023-05-01T04:25:48;101549.56;;;17.17;48.36
70248;BME280;57641;51.416;5.506;2023-05-01T04:28:14;101545.88;;;17.10;48.12
70248;BME280;57641;51.416;5.506;2023-05-01T04:30:39;101544.19;;;17.09;48.67
70248;BME280;57641;51.416;5.506;2023-05-01T04:33:04;101553.81;;;17.12;48.92
70248;BME280;57641;51.416;5.506;2023-05-01T04:35:37;101560.25;;;17.03;48.71
70248;BME280;57641;51.416;5.506;2023-05-01T04:38:07;101572.47;;;16.82;48.77
70248;BME280;57641;51.416;5.506;2023-05-01T04:40:34;101567.38;;;16.65;49.18
70248;BME280;57641;51.416;5.506;2023-05-01T04:42:59;101560.88;;;16.82;48.91
70248;BME280;57641;51.416;5.506;2023-05-01T04:45:25;101563.44;;;16.75;49.75
70248;BME280;57641;51.416;5.506;2023-05-01T04:47:50;101574.72;;;16.71;49.18
70248;BME280;57641;51.416;5.506;2023-05-01T04:50:16;101568.94;;;16.82;49.95
70248;BME280;57641;51.416;5.506;2023-05-01T04:52:41;101569.97;;;16.81;50.51
70248;BME280;57641;51.416;5.506;2023-05-01T04:55:08;101570.47;;;16.76;50.56
70248;BME280;57641;51.416;5.506;2023-05-01T04:57:34;101568.47;;;16.78;50.18
70248;BME280;57641;51.416;5.506;2023-05-01T05:00:00;101569.25;;;16.87;49.86
70248;BME280;57641;51.416;5.506;2023-05-01T05:02:27;101571.63;;;16.82;49.48
70248;BME280;57641;51.416;5.506;2023-05-01T05:04:52;101566.63;;;16.79;50.68
70248;BME280;57641;51.416;5.506;2023-05-01T05:07:19;101565.75;;;16.86;50.69
70248;BME280;57641;51.416;5.506;2023-05-01T05:09:45;101568.09;;;16.81;50.92
70248;BME280;57641;51.416;5.506;2023-05-01T05:12:10;101568.44;;;16.86;50.97
70248;BME280;57641;51.416;5.506;2023-05-01T05:14:36;101570.47;;;16.84;50.86
70248;BME280;57641;51.416;5.506;2023-05-01T05:17:01;101564.22;;;16.84;50.92
70248;BME280;57641;51.416;5.506;2023-05-01T05:19:27;101571.44;;;16.92;51.01
70248;BME280;57641;51.416;5.506;2023-05-01T05:21:53;101569.75;;;16.91;50.45
70248;BME280;57641;51.416;5.506;2023-05-01T05:24:18;101558.00;;;16.83;50.86
70248;BME280;57641;51.416;5.506;2023-05-01T05:26:43;101564.59;;;16.81;51.35
70248;BME280;57641;51.416;5.506;2023-05-01T05:29:09;101566.06;;;16.92;51.26
70248;BME280;57641;51.416;5.506;2023-05-01T05:31:34;101566.38;;;16.88;51.66
70248;BME280;57641;51.416;5.506;2023-05-01T05:34:00;101569.41;;;16.94;51.71
70248;BME280;57641;51.416;5.506;2023-05-01T05:36:25;101567.19;;;16.97;51.72
70248;BME280;57641;51.416;5.506;2023-05-01T05:38:52;101564.97;;;17.01;50.47
70248;BME280;57641;51.416;5.506;2023-05-01T05:41:17;101559.44;;;17.02;50.58
70248;BME280;57641;51.416;5.506;2023-05-01T05:43:42;101546.44;;;17.06;49.98
70248;BME280;57641;51.416;5.506;2023-05-01T05:46:08;101550.44;;;17.10;50.23
70248;BME280;57641;51.416;5.506;2023-05-01T05:48:33;101551.94;;;17.12;50.22
70248;BME280;57641;51.416;5.506;2023-05-01T05:50:59;101562.19;;;17.17;50.06
70248;BME280;57641;51.416;5.506;2023-05-01T05:53:25;101559.28;;;17.18;50.09
70248;BME280;57641;51.416;5.506;2023-05-01T05:55:50;101560.81;;;17.21;50.00
70248;BME280;57641;51.416;5.506;2023-05-01T05:58:16;101551.63;;;17.30;49.87
70248;BME280;57641;51.416;5.506;2023-05-01T06:00:48;101549.22;;;17.35;49.40
70248;BME280;57641;51.416;5.506;2023-05-01T06:03:14;101541.44;;;17.40;49.44
70248;BME280;57641;51.416;5.506;2023-05-01T06:05:41;101544.97;;;17.41;49.26
70248;BME280;57641;51.416;5.506;2023-05-01T06:08:07;101548.63;;;17.48;49.01
70248;BME280;57641;51.416;5.506;2023-05-01T06:10:35;101544.25;;;17.47;49.37
70248;BME280;57641;51.416;5.506;2023-05-01T06:13:01;101554.16;;;17.54;48.46
70248;BME280;57641;51.416;5.506;2023-05-01T06:15:27;101550.97;;;17.51;48.86
70248;BME280;57641;51.416;5.506;2023-05-01T06:17:53;101549.09;;;17.59;48.87
70248;BME280;57641;51.416;5.506;2023-05-01T06:20:19;101556.63;;;17.64;48.87
70248;BME280;57641;51.416;5.506;2023-05-01T06:22:44;101552.06;;;17.64;47.63
70248;BME280;57641;51.416;5.506;2023-05-01T06:25:11;101553.00;;;17.71;47.71
70248;BME280;57641;51.416;5.506;2023-05-01T06:27:37;101550.31;;;17.71;47.20
70248;BME280;57641;51.416;5.506;2023-05-01T06:30:02;101549.22;;;17.81;47.50
70248;BME280;57641;51.416;5.506;2023-05-01T06:32:28;101551.53;;;17.84;47.60
70248;BME280;57641;51.416;5.506;2023-05-01T06:34:53;101538.63;;;17.94;47.93
70248;BME280;57641;51.416;5.506;2023-05-01T06:37:20;101544.03;;;17.94;47.59
70248;BME280;57641;51.416;5.506;2023-05-01T06:39:46;101543.28;;;18.00;47.74
70248;BME280;57641;51.416;5.506;2023-05-01T06:42:12;101543.00;;;18.09;47.75
70248;BME280;57641;51.416;5.506;2023-05-01T06:44:41;101548.59;;;18.08;47.01
70248;BME280;57641;51.416;5.506;2023-05-01T06:47:06;101540.59;;;18.14;47.37
70248;BME280;57641;51.416;5.506;2023-05-01T06:49:32;101542.53;;;18.21;47.37
70248;BME280;57641;51.416;5.506;2023-05-01T06:51:58;101543.84;;;18.25;47.13
70248;BME280;57641;51.416;5.506;2023-05-01T06:54:24;101535.75;;;18.39;47.18
70248;BME280;57641;51.416;5.506;2023-05-01T06:56:52;101545.50;;;18.40;47.60
70248;BME280;57641;51.416;5.506;2023-05-01T06:59:17;101541.63;;;18.43;47.27
70248;BME280;57641;51.416;5.506;2023-05-01T07:01:43;101542.34;;;18.51;47.53
70248;BME280;57641;51.416;5.506;2023-05-01T07:04:08;101546.84;;;18.59;47.30
70248;BME280;57641;51.416;5.506;2023-05-01T07:06:34;101547.56;;;18.53;47.05
70248;BME280;57641;51.416;5.506;2023-05-01T07:08:59;101547.03;;;18.58;47.02
70248;BME280;57641;51.416;5.506;2023-05-01T07:11:25;101551.75;;;18.70;47.46
70248;BME280;57641;51.416;5.506;2023-05-01T07:13:52;101547.72;;;18.81;48.28
70248;BME280;57641;51.416;5.506;2023-05-01T07:16:18;101551.53;;;18.86;47.48
70248;BME280;57641;51.416;5.506;2023-05-01T07:18:43;101548.34;;;18.97;47.33
70248;BME280;57641;51.416;5.506;2023-05-01T07:21:09;101538.81;;;19.02;46.53
70248;BME280;57641;51.416;5.506;2023-05-01T07:23:36;101538.78;;;18.80;45.09
70248;BME280;57641;51.416;5.506;2023-05-01T07:26:02;101542.97;;;18.83;45.17
70248;BME280;57641;51.416;5.506;2023-05-01T07:28:28;101541.00;;;18.91;45.35
70248;BME280;57641;51.416;5.506;2023-05-01T07:30:54;101544.72;;;18.90;45.50
70248;BME280;57641;51.416;5.506;2023-05-01T07:33:19;101543.03;;;18.39;46.20
70248;BME280;57641;51.416;5.506;2023-05-01T07:35:45;101547.69;;;18.45;46.03
70248;BME280;57641;51.416;5.506;2023-05-01T07:38:11;101542.72;;;18.99;45.97
70248;BME280;57641;51.416;5.506;2023-05-01T07:40:38;101542.09;;;18.97;45.10
70248;BME280;57641;51.416;5.506;2023-05-01T07:43:03;101536.63;;;18.90;45.27
70248;BME280;57641;51.416;5.506;2023-05-01T07:45:29;101543.66;;;19.06;45.19
70248;BME280;57641;51.416;5.506;2023-05-01T07:47:54;101541.34;;;19.24;44.27
70248;BME280;57641;51.416;5.506;2023-05-01T07:50:21;101544.69;;;19.26;44.19
70248;BME280;57641;51.416;5.506;2023-05-01T07:52:47;101535.47;;;19.21;44.64
70248;BME280;57641;51.416;5.506;2023-05-01T07:55:13;101537.91;;;19.37;44.43
70248;BME280;57641;51.416;5.506;2023-05-01T07:57:39;101544.69;;;19.48;44.33
70248;BME280;57641;51.416;5.506;2023-05-01T08:00:05;101536.50;;;19.41;44.07
70248;BME280;57641;51.416;5.506;2023-05-01T08:02:30;101536.50;;;19.41;44.00
70248;BME280;57641;51.416;5.506;2023-05-01T08:04:56;101543.25;;;19.45;44.06
70248;BME280;57641;51.416;5.506;2023-05-01T08:07:22;101531.31;;;19.61;43.89
70248;BME280;57641;51.416;5.506;2023-05-01T08:09:47;101535.88;;;19.18;44.82
70248;BME280;57641;51.416;5.506;2023-05-01T08:12:12;101543.00;;;19.68;43.84
70248;BME280;57641;51.416;5.506;2023-05-01T08:14:38;101529.94;;;19.71;43.42
70248;BME280;57641;51.416;5.506;2023-05-01T08:17:03;101532.34;;;19.88;43.05
70248;BME280;57641;51.416;5.506;2023-05-01T08:19:29;101532.00;;;19.97;42.40
70248;BME280;57641;51.416;5.506;2023-05-01T08:21:55;101536.94;;;19.94;42.32
70248;BME280;57641;51.416;5.506;2023-05-01T08:24:20;101531.16;;;19.69;42.75
70248;BME280;57641;51.416;5.506;2023-05-01T08:26:46;101531.94;;;19.91;42.31
70248;BME280;57641;51.416;5.506;2023-05-01T08:29:12;101523.81;;;19.91;42.72
70248;BME280;57641;51.416;5.506;2023-05-01T08:31:38;101530.72;;;19.93;42.04
70248;BME280;57641;51.416;5.506;2023-05-01T08:34:04;101528.41;;;20.24;41.59
70248;BME280;57641;51.416;5.506;2023-05-01T08:36:30;101525.72;;;20.24;41.35
70248;BME280;57641;51.416;5.506;2023-05-01T08:38:59;101521.31;;;20.23;41.61
70248;BME280;57641;51.416;5.506;2023-05-01T08:41:26;101519.00;;;20.55;41.59
70248;BME280;57641;51.416;5.506;2023-05-01T08:43:52;101523.41;;;20.69;41.48
70248;BME280;57641;51.416;5.506;2023-05-01T08:46:42;101524.91;;;20.78;40.57
70248;BME280;57641;51.416;5.506;2023-05-01T08:49:13;101526.19;;;20.89;41.28
70248;BME280;57641;51.416;5.506;2023-05-01T08:51:41;101524.75;;;20.99;40.72
70248;BME280;57641;51.416;5.506;2023-05-01T08:54:08;101523.09;;;20.92;40.10
70248;BME280;57641;51.416;5.506;2023-05-01T08:56:35;101527.66;;;20.91;39.64
70248;BME280;57641;51.416;5.506;2023-05-01T08:59:02;101525.38;;;20.88;40.25
70248;BME280;57641;51.416;5.506;2023-05-01T09:01:29;101531.25;;;20.44;40.67
70248;BME280;57641;51.416;5.506;2023-05-01T09:03:57;101537.44;;;20.86;40.62
70248;BME280;57641;51.416;5.506;2023-05-01T09:06:24;101541.63;;;20.82;40.79
70248;BME280;57641;51.416;5.506;2023-05-01T09:08:51;101536.13;;;20.28;40.85
70248;BME280;57641;51.416;5.506;2023-05-01T09:11:17;101534.72;;;20.73;40.43
70248;BME280;57641;51.416;5.506;2023-05-01T09:13:44;101530.78;;;20.82;40.40
70248;BME280;57641;51.416;5.506;2023-05-01T09:16:10;101537.28;;;20.46;40.25
70248;BME280;57641;51.416;5.506;2023-05-01T09:18:36;101533.94;;;20.98;39.59
70248;BME280;57641;51.416;5.506;2023-05-01T09:21:05;101543.94;;;21.04;40.08
70248;BME280;57641;51.416;5.506;2023-05-01T09:23:30;101537.31;;;21.14;39.26
70248;BME280;57641;51.416;5.506;2023-05-01T09:25:58;101538.97;;;21.08;39.27
70248;BME280;57641;51.416;5.506;2023-05-01T09:28:45;101532.41;;;20.76;39.74
70248;BME280;57641;51.416;5.506;2023-05-01T09:31:20;101530.72;;;21.36;39.25
70248;BME280;57641;51.416;5.506;2023-05-01T09:33:50;101527.34;;;21.47;38.61
70248;BME280;57641;51.416;5.506;2023-05-01T09:36:18;101528.00;;;21.62;37.72
70248;BME280;57641;51.416;5.506;2023-05-01T09:38:44;101532.13;;;21.84;37.99
70248;BME280;57641;51.416;5.506;2023-05-01T09:41:10;101521.09;;;21.99;37.30
70248;BME280;57641;51.416;5.506;2023-05-01T09:43:35;101517.31;;;21.94;37.36
70248;BME280;57641;51.416;5.506;2023-05-01T09:46:02;101514.59;;;22.00;36.70
70248;BME280;57641;51.416;5.506;2023-05-01T09:48:33;101517.94;;;22.09;37.13
70248;BME280;57641;51.416;5.506;2023-05-01T09:51:00;101520.84;;;22.20;37.58
70248;BME280;57641;51.416;5.506;2023-05-01T09:53:39;101523.91;;;22.37;36.75
70248;BME280;57641;51.416;5.506;2023-05-01T09:56:06;101521.66;;;22.21;36.64
70248;BME280;57641;51.416;5.506;2023-05-01T09:58:31;101526.03;;;22.28;36.32
70248;BME280;57641;51.416;5.506;2023-05-01T10:00:57;101522.53;;;22.15;36.18
70248;BME280;57641;51.416;5.506;2023-05-01T10:03:23;101523.19;;;21.97;37.45
70248;BME280;57641;51.416;5.506;2023-05-01T10:05:48;101527.53;;;22.11;37.08
70248;BME280;57641;51.416;5.506;2023-05-01T10:08:14;101530.81;;;22.33;37.50
70248;BME280;57641;51.416;5.506;2023-05-01T10:10:40;101519.88;;;22.53;36.73
70248;BME280;57641;51.416;5.506;2023-05-01T10:15:40;101522.50;;;22.79;36.64
70248;BME280;57641;51.416;5.506;2023-05-01T10:18:09;101523.78;;;22.77;36.15
70248;BME280;57641;51.416;5.506;2023-05-01T10:20:36;101526.88;;;22.80;36.24
70248;BME280;57641;51.416;5.506;2023-05-01T10:23:02;101515.63;;;22.77;36.74
70248;BME280;57641;51.416;5.506;2023-05-01T10:25:31;101525.41;;;22.84;36.24
70248;BME280;57641;51.416;5.506;2023-05-01T10:27:57;101521.91;;;22.77;36.36
70248;BME280;57641;51.416;5.506;2023-05-01T10:30:24;101521.53;;;23.05;36.08
70248;BME280;57641;51.416;5.506;2023-05-01T10:32:50;101520.88;;;22.71;36.16
70248;BME280;57641;51.416;5.506;2023-05-01T10:35:35;101520.06;;;22.58;36.77
70248;BME280;57641;51.416;5.506;2023-05-01T10:38:09;101526.88;;;22.80;36.23
70248;BME280;57641;51.416;5.506;2023-05-01T10:45:44;101527.31;;;22.70;37.35
70248;BME280;57641;51.416;5.506;2023-05-01T10:48:10;101526.38;;;22.96;37.26
70248;BME280;57641;51.416;5.506;2023-05-01T10:53:41;101523.59;;;22.65;36.91
70248;BME280;57641;51.416;5.506;2023-05-01T10:59:03;101524.50;;;22.97;36.11
70248;BME280;57641;51.416;5.506;2023-05-01T11:01:33;101528.19;;;22.64;36.67
70248;BME280;57641;51.416;5.506;2023-05-01T11:06:33;101531.09;;;22.69;35.86
70248;BME280;57641;51.416;5.506;2023-05-01T11:09:00;101533.44;;;22.72;36.06
70248;BME280;57641;51.416;5.506;2023-05-01T11:13:58;101526.28;;;22.78;35.95
70248;BME280;57641;51.416;5.506;2023-05-01T11:21:47;101528.53;;;22.30;37.98
70248;BME280;57641;51.416;5.506;2023-05-01T11:24:12;101531.44;;;22.42;38.07
70248;BME280;57641;51.416;5.506;2023-05-01T11:26:39;101537.09;;;22.33;37.93
70248;BME280;57641;51.416;5.506;2023-05-01T11:29:06;101538.78;;;22.35;37.89
70248;BME280;57641;51.416;5.506;2023-05-01T11:31:32;101542.69;;;22.52;37.83
70248;BME280;57641;51.416;5.506;2023-05-01T11:33:58;101531.44;;;22.42;38.19
70248;BME280;57641;51.416;5.506;2023-05-01T11:36:25;101538.19;;;22.13;38.68
70248;BME280;57641;51.416;5.506;2023-05-01T11:38:58;101551.56;;;21.81;39.42
70248;BME280;57641;51.416;5.506;2023-05-01T11:41:27;101542.81;;;21.86;39.02
70248;BME280;57641;51.416;5.506;2023-05-01T11:43:54;101550.34;;;21.77;39.57
70248;BME280;57641;51.416;5.506;2023-05-01T11:46:30;101549.91;;;21.61;40.06
70248;BME280;57641;51.416;5.506;2023-05-01T11:48:58;101544.91;;;21.64;40.84
70248;BME280;57641;51.416;5.506;2023-05-01T11:51:24;101556.78;;;21.43;40.57
70248;BME280;57641;51.416;5.506;2023-05-01T11:56:22;101548.22;;;21.86;39.93
70248;BME280;57641;51.416;5.506;2023-05-01T11:58:48;101545.13;;;21.56;39.32
70248;BME280;57641;51.416;5.506;2023-05-01T12:01:14;101551.97;;;21.85;38.77
70248;BME280;57641;51.416;5.506;2023-05-01T12:03:40;101547.19;;;21.34;38.75
70248;BME280;57641;51.416;5.506;2023-05-01T12:06:08;101545.91;;;22.16;38.02
70248;BME280;57641;51.416;5.506;2023-05-01T12:08:34;101544.78;;;22.43;37.83
70248;BME280;57641;51.416;5.506;2023-05-01T12:10:59;101541.78;;;22.64;36.82
70248;BME280;57641;51.416;5.506;2023-05-01T12:13:25;101539.56;;;22.99;36.34
70248;BME280;57641;51.416;5.506;2023-05-01T12:15:53;101541.38;;;23.05;35.74
70248;BME280;57641;51.416;5.506;2023-05-01T12:18:19;101545.50;;;22.83;35.99
70248;BME280;57641;51.416;5.506;2023-05-01T12:20:49;101537.41;;;23.39;35.79
70248;BME280;57641;51.416;5.506;2023-05-01T12:23:18;101534.72;;;23.01;35.23
70248;BME280;57641;51.416;5.506;2023-05-01T12:25:44;101538.03;;;22.72;34.87
70248;BME280;57641;51.416;5.506;2023-05-01T12:28:12;101536.06;;;22.86;34.84
70248;BME280;57641;51.416;5.506;2023-05-01T12:30:39;101539.41;;;22.88;34.24
70248;BME280;57641;51.416;5.506;2023-05-01T12:33:16;101536.34;;;22.64;34.34
70248;BME280;57641;51.416;5.506;2023-05-01T12:35:43;101529.03;;;22.65;33.77
70248;BME280;57641;51.416;5.506;2023-05-01T12:38:19;101535.31;;;22.59;35.40
70248;BME280;57641;51.416;5.506;2023-05-01T12:40:57;101523.88;;;22.50;36.03
70248;BME280;57641;51.416;5.506;2023-05-01T12:43:35;101532.16;;;22.75;35.22
70248;BME280;57641;51.416;5.506;2023-05-01T12:46:05;101531.22;;;22.94;35.36
70248;BME280;57641;51.416;5.506;2023-05-01T12:48:38;101528.81;;;22.73;36.08
70248;BME280;57641;51.416;5.506;2023-05-01T12:51:05;101529.97;;;22.32;36.46
70248;BME280;57641;51.416;5.506;2023-05-01T12:53:32;101537.56;;;22.82;35.52
70248;BME280;57641;51.416;5.506;2023-05-01T12:55:57;101539.41;;;22.88;35.66
70248;BME280;57641;51.416;5.506;2023-05-01T12:58:36;101541.13;;;22.82;34.59
70248;BME280;57641;51.416;5.506;2023-05-01T13:01:02;101540.75;;;22.72;35.16
70248;BME280;57641;51.416;5.506;2023-05-01T13:03:29;101539.94;;;23.34;34.24
70248;BME280;57641;51.416;5.506;2023-05-01T13:06:00;101544.81;;;22.94;32.79
70248;BME280;57641;51.416;5.506;2023-05-01T13:08:37;101551.00;;;23.46;32.96
70248;BME280;57641;51.416;5.506;2023-05-01T13:11:14;101544.97;;;23.69;32.59
70248;BME280;57641;51.416;5.506;2023-05-01T13:13:43;101553.22;;;23.80;31.44
70248;BME280;57641;51.416;5.506;2023-05-01T13:16:10;101547.97;;;23.54;31.45
70248;BME280;57641;51.416;5.506;2023-05-01T13:21:10;101547.38;;;23.77;31.43
70248;BME280;57641;51.416;5.506;2023-05-01T13:23:37;101541.13;;;23.51;32.25
70248;BME280;57641;51.416;5.506;2023-05-01T13:26:05;101544.03;;;23.50;32.87
70248;BME280;57641;51.416;5.506;2023-05-01T13:28:33;101554.19;;;23.36;33.33
70248;BME280;57641;51.416;5.506;2023-05-01T13:30:59;101547.59;;;23.19;33.52
70248;BME280;57641;51.416;5.506;2023-05-01T13:33:25;101553.72;;;23.08;33.66